Terminal Aerodrome Forecast
Issued by NWS Louisville, KY

Home | Current Version | Previous Version | Text Only | Print | Product List | Glossary On
Versions: 1 2 3 4 5 6 7 8 9 10 11 12 13 14 15 16 17 18 19 20
651
FTUS43 KLMK 031729
TAFBWG
TAF
KBWG 031729Z 0318/0418 30010KT P6SM BKN035
     FM040200 VRB03KT P6SM SCT060
     FM041500 24012G18KT P6SM VCSH BKN025=

USA.gov is the U.S. government's official web portal to all federal, state and local government web resources and services.